sensor_id;sensor_type;location;lat;lon;timestamp;temperature;humidity
15113;DHT22;7657;50.140;7.076;2022-08-01T00:02:12;22.00;99.90
15113;DHT22;7657;50.140;7.076;2022-08-01T00:04:38;21.90;99.90
15113;DHT22;7657;50.140;7.076;2022-08-01T00:07:05;21.90;99.90
15113;DHT22;7657;50.140;7.076;2022-08-01T00:09:32;21.90;99.90
15113;DHT22;7657;50.140;7.076;2022-08-01T00:12:00;21.80;99.90
15113;DHT22;7657;50.140;7.076;2022-08-01T00:14:27;21.90;99.90
15113;DHT22;7657;50.140;7.076;2022-08-01T00:16:54;21.90;99.90
15113;DHT22;7657;50.140;7.076;2022-08-01T00:19:21;21.80;99.90
15113;DHT22;7657;50.140;7.076;2022-08-01T00:21:48;21.70;99.90
15113;DHT22;7657;50.140;7.076;2022-08-01T00:24:15;21.60;99.90
15113;DHT22;7657;50.140;7.076;2022-08-01T00:26:42;21.60;99.90
15113;DHT22;7657;50.140;7.076;2022-08-01T00:29:10;21.60;99.90
15113;DHT22;7657;50.140;7.076;2022-08-01T00:31:37;21.60;99.90
15113;DHT22;7657;50.140;7.076;2022-08-01T00:34:04;21.60;99.90
15113;DHT22;7657;50.140;7.076;2022-08-01T00:36:31;21.50;99.90
15113;DHT22;7657;50.140;7.076;2022-08-01T00:38:58;21.30;99.90
15113;DHT22;7657;50.140;7.076;2022-08-01T00:41:25;21.30;99.90
15113;DHT22;7657;50.140;7.076;2022-08-01T00:43:52;21.20;99.90
15113;DHT22;7657;50.140;7.076;2022-08-01T00:46:21;21.10;99.90
15113;DHT22;7657;50.140;7.076;2022-08-01T00:48:48;21.00;99.90
15113;DHT22;7657;50.140;7.076;2022-08-01T00:51:16;21.00;99.90
15113;DHT22;7657;50.140;7.076;2022-08-01T00:53:43;21.00;99.90
15113;DHT22;7657;50.140;7.076;2022-08-01T00:56:10;20.90;99.90
15113;DHT22;7657;50.140;7.076;2022-08-01T00:58:37;20.80;99.90
15113;DHT22;7657;50.140;7.076;2022-08-01T01:01:04;20.80;99.90
15113;DHT22;7657;50.140;7.076;2022-08-01T01:03:33;20.80;99.90
15113;DHT22;7657;50.140;7.076;2022-08-01T01:06:07;20.70;99.90
15113;DHT22;7657;50.140;7.076;2022-08-01T01:08:43;20.60;99.90
15113;DHT22;7657;50.140;7.076;2022-08-01T01:11:16;20.60;99.90
15113;DHT22;7657;50.140;7.076;2022-08-01T01:13:51;20.50;99.90
15113;DHT22;7657;50.140;7.076;2022-08-01T01:16:19;20.50;99.90
15113;DHT22;7657;50.140;7.076;2022-08-01T01:18:53;20.50;99.90
15113;DHT22;7657;50.140;7.076;2022-08-01T01:21:33;20.40;99.90
15113;DHT22;7657;50.140;7.076;2022-08-01T01:24:13;20.30;99.90
15113;DHT22;7657;50.140;7.076;2022-08-01T01:26:49;20.30;99.90
15113;DHT22;7657;50.140;7.076;2022-08-01T01:29:21;20.20;99.90
15113;DHT22;7657;50.140;7.076;2022-08-01T01:31:54;20.10;99.90
15113;DHT22;7657;50.140;7.076;2022-08-01T01:34:23;20.00;99.90
15113;DHT22;7657;50.140;7.076;2022-08-01T01:36:52;20.00;99.90
15113;DHT22;7657;50.140;7.076;2022-08-01T01:39:22;20.00;99.90
15113;DHT22;7657;50.140;7.076;2022-08-01T01:41:52;20.00;99.90
15113;DHT22;7657;50.140;7.076;2022-08-01T01:44:21;19.90;99.90
15113;DHT22;7657;50.140;7.076;2022-08-01T01:46:50;20.00;99.90
15113;DHT22;7657;50.140;7.076;2022-08-01T01:49:19;19.90;99.90
15113;DHT22;7657;50.140;7.076;2022-08-01T01:51:48;19.80;99.90
15113;DHT22;7657;50.140;7.076;2022-08-01T01:54:17;19.90;99.90
15113;DHT22;7657;50.140;7.076;2022-08-01T01:56:45;19.90;99.90
15113;DHT22;7657;50.140;7.076;2022-08-01T01:59:19;20.00;99.90
15113;DHT22;7657;50.140;7.076;2022-08-01T02:01:49;20.00;99.90
15113;DHT22;7657;50.140;7.076;2022-08-01T02:04:18;20.00;99.90
15113;DHT22;7657;50.140;7.076;2022-08-01T02:06:47;20.00;99.90
15113;DHT22;7657;50.140;7.076;2022-08-01T02:09:18;19.90;99.90
15113;DHT22;7657;50.140;7.076;2022-08-01T02:11:47;19.90;99.90
15113;DHT22;7657;50.140;7.076;2022-08-01T02:14:17;19.90;99.90
15113;DHT22;7657;50.140;7.076;2022-08-01T02:16:48;19.90;99.90
15113;DHT22;7657;50.140;7.076;2022-08-01T02:19:17;19.90;99.90
15113;DHT22;7657;50.140;7.076;2022-08-01T02:21:47;19.90;99.90
15113;DHT22;7657;50.140;7.076;2022-08-01T02:24:20;19.90;99.90
15113;DHT22;7657;50.140;7.076;2022-08-01T02:26:52;19.80;99.90
15113;DHT22;7657;50.140;7.076;2022-08-01T02:29:24;19.70;99.90
15113;DHT22;7657;50.140;7.076;2022-08-01T02:31:55;19.60;99.90
15113;DHT22;7657;50.140;7.076;2022-08-01T02:34:24;19.60;99.90
15113;DHT22;7657;50.140;7.076;2022-08-01T02:36:52;19.50;99.90
15113;DHT22;7657;50.140;7.076;2022-08-01T02:39:21;19.50;99.90
15113;DHT22;7657;50.140;7.076;2022-08-01T02:41:52;19.40;99.90
15113;DHT22;7657;50.140;7.076;2022-08-01T02:44:24;19.40;99.90
15113;DHT22;7657;50.140;7.076;2022-08-01T02:46:54;19.20;99.90
15113;DHT22;7657;50.140;7.076;2022-08-01T02:49:24;19.20;99.90
15113;DHT22;7657;50.140;7.076;2022-08-01T02:51:53;19.30;99.90
15113;DHT22;7657;50.140;7.076;2022-08-01T02:54:21;19.20;99.90
15113;DHT22;7657;50.140;7.076;2022-08-01T02:56:50;19.20;99.90
15113;DHT22;7657;50.140;7.076;2022-08-01T02:59:20;19.30;99.90
15113;DHT22;7657;50.140;7.076;2022-08-01T03:01:51;19.30;99.90
15113;DHT22;7657;50.140;7.076;2022-08-01T03:04:20;19.40;99.90
15113;DHT22;7657;50.140;7.076;2022-08-01T03:06:51;19.60;99.90
15113;DHT22;7657;50.140;7.076;2022-08-01T03:09:19;19.60;99.90
15113;DHT22;7657;50.140;7.076;2022-08-01T03:11:48;19.60;99.90
15113;DHT22;7657;50.140;7.076;2022-08-01T03:14:16;19.80;99.90
15113;DHT22;7657;50.140;7.076;2022-08-01T03:16:45;19.80;99.90
15113;DHT22;7657;50.140;7.076;2022-08-01T03:19:13;19.90;99.90
15113;DHT22;7657;50.140;7.076;2022-08-01T03:21:43;20.00;99.90
15113;DHT22;7657;50.140;7.076;2022-08-01T03:24:13;20.10;99.90
15113;DHT22;7657;50.140;7.076;2022-08-01T03:26:41;20.20;99.90
15113;DHT22;7657;50.140;7.076;2022-08-01T03:29:12;20.20;99.90
15113;DHT22;7657;50.140;7.076;2022-08-01T03:31:40;20.20;99.90
15113;DHT22;7657;50.140;7.076;2022-08-01T03:34:10;20.30;99.90
15113;DHT22;7657;50.140;7.076;2022-08-01T03:36:43;20.30;99.90
15113;DHT22;7657;50.140;7.076;2022-08-01T03:39:14;20.30;99.90
15113;DHT22;7657;50.140;7.076;2022-08-01T03:41:48;20.20;99.90
15113;DHT22;7657;50.140;7.076;2022-08-01T03:44:20;20.20;99.90
15113;DHT22;7657;50.140;7.076;2022-08-01T03:46:54;20.30;99.90
15113;DHT22;7657;50.140;7.076;2022-08-01T03:49:25;20.40;99.90
15113;DHT22;7657;50.140;7.076;2022-08-01T03:51:53;20.30;99.90
15113;DHT22;7657;50.140;7.076;2022-08-01T03:54:24;20.30;99.90
15113;DHT22;7657;50.140;7.076;2022-08-01T03:56:52;20.20;99.90
15113;DHT22;7657;50.140;7.076;2022-08-01T03:59:20;20.30;99.90
15113;DHT22;7657;50.140;7.076;2022-08-01T04:01:48;20.30;99.90
15113;DHT22;7657;50.140;7.076;2022-08-01T04:04:15;20.20;99.90
15113;DHT22;7657;50.140;7.076;2022-08-01T04:06:42;20.00;99.90
15113;DHT22;7657;50.140;7.076;2022-08-01T04:09:11;19.90;99.90
15113;DHT22;7657;50.140;7.076;2022-08-01T04:11:39;19.90;99.90
15113;DHT22;7657;50.140;7.076;2022-08-01T04:14:07;19.70;99.90
15113;DHT22;7657;50.140;7.076;2022-08-01T04:16:34;19.70;99.90
15113;DHT22;7657;50.140;7.076;2022-08-01T04:19:01;19.80;99.90
15113;DHT22;7657;50.140;7.076;2022-08-01T04:21:31;19.90;99.90
15113;DHT22;7657;50.140;7.076;2022-08-01T04:24:01;20.00;99.90
15113;DHT22;7657;50.140;7.076;2022-08-01T04:26:32;20.10;99.90
15113;DHT22;7657;50.140;7.076;2022-08-01T04:29:03;20.20;99.90
15113;DHT22;7657;50.140;7.076;2022-08-01T04:31:31;20.20;99.90
15113;DHT22;7657;50.140;7.076;2022-08-01T04:34:01;20.20;99.90
15113;DHT22;7657;50.140;7.076;2022-08-01T04:36:29;20.30;99.90
15113;DHT22;7657;50.140;7.076;2022-08-01T04:38:59;20.30;99.90
15113;DHT22;7657;50.140;7.076;2022-08-01T04:41:27;20.40;99.90
15113;DHT22;7657;50.140;7.076;2022-08-01T04:43:54;20.40;99.90
15113;DHT22;7657;50.140;7.076;2022-08-01T04:46:22;20.40;99.90
15113;DHT22;7657;50.140;7.076;2022-08-01T04:48:50;20.30;99.90
15113;DHT22;7657;50.140;7.076;2022-08-01T04:51:17;20.30;99.90
15113;DHT22;7657;50.140;7.076;2022-08-01T04:53:47;20.40;99.90
15113;DHT22;7657;50.140;7.076;2022-08-01T04:56:16;20.20;99.90
15113;DHT22;7657;50.140;7.076;2022-08-01T04:58:44;20.20;99.90
15113;DHT22;7657;50.140;7.076;2022-08-01T05:01:11;20.10;99.90
15113;DHT22;7657;50.140;7.076;2022-08-01T05:03:39;20.10;99.90
15113;DHT22;7657;50.140;7.076;2022-08-01T05:06:06;20.20;99.90
15113;DHT22;7657;50.140;7.076;2022-08-01T05:08:33;20.30;99.90
15113;DHT22;7657;50.140;7.076;2022-08-01T05:11:01;20.30;99.90
15113;DHT22;7657;50.140;7.076;2022-08-01T05:13:28;20.30;99.90
15113;DHT22;7657;50.140;7.076;2022-08-01T05:15:55;20.40;99.90
15113;DHT22;7657;50.140;7.076;2022-08-01T05:18:22;20.40;99.90
15113;DHT22;7657;50.140;7.076;2022-08-01T05:20:51;20.40;99.90
15113;DHT22;7657;50.140;7.076;2022-08-01T05:23:18;20.30;99.90
15113;DHT22;7657;50.140;7.076;2022-08-01T05:25:45;20.30;99.90
15113;DHT22;7657;50.140;7.076;2022-08-01T05:28:12;20.20;99.90
15113;DHT22;7657;50.140;7.076;2022-08-01T05:30:39;20.30;99.90
15113;DHT22;7657;50.140;7.076;2022-08-01T05:33:06;20.30;99.90
15113;DHT22;7657;50.140;7.076;2022-08-01T05:35:33;20.30;99.90
15113;DHT22;7657;50.140;7.076;2022-08-01T05:38:01;20.20;99.90
15113;DHT22;7657;50.140;7.076;2022-08-01T05:40:28;20.30;99.90
15113;DHT22;7657;50.140;7.076;2022-08-01T05:42:55;20.40;99.90
15113;DHT22;7657;50.140;7.076;2022-08-01T05:45:22;20.40;99.90
15113;DHT22;7657;50.140;7.076;2022-08-01T05:47:49;20.50;99.90
15113;DHT22;7657;50.140;7.076;2022-08-01T05:50:16;20.50;99.90
15113;DHT22;7657;50.140;7.076;2022-08-01T05:52:43;20.50;99.90
15113;DHT22;7657;50.140;7.076;2022-08-01T05:55:11;20.50;99.90
15113;DHT22;7657;50.140;7.076;2022-08-01T05:57:38;20.40;99.90
15113;DHT22;7657;50.140;7.076;2022-08-01T06:00:06;20.40;99.90
15113;DHT22;7657;50.140;7.076;2022-08-01T06:02:33;20.40;99.90
15113;DHT22;7657;50.140;7.076;2022-08-01T06:05:00;20.40;99.90
15113;DHT22;7657;50.140;7.076;2022-08-01T06:07:27;20.50;99.90
15113;DHT22;7657;50.140;7.076;2022-08-01T06:09:54;20.40;99.90
15113;DHT22;7657;50.140;7.076;2022-08-01T06:12:23;20.40;99.90
15113;DHT22;7657;50.140;7.076;2022-08-01T06:14:49;20.50;99.90
15113;DHT22;7657;50.140;7.076;2022-08-01T06:17:17;20.60;99.90
15113;DHT22;7657;50.140;7.076;2022-08-01T06:19:44;20.60;99.90
15113;DHT22;7657;50.140;7.076;2022-08-01T06:22:11;20.70;99.90
15113;DHT22;7657;50.140;7.076;2022-08-01T06:24:37;20.60;99.90
15113;DHT22;7657;50.140;7.076;2022-08-01T06:27:04;20.60;99.90
15113;DHT22;7657;50.140;7.076;2022-08-01T06:29:33;20.60;99.90
15113;DHT22;7657;50.140;7.076;2022-08-01T06:32:00;20.60;99.90
15113;DHT22;7657;50.140;7.076;2022-08-01T06:34:27;20.70;99.90
15113;DHT22;7657;50.140;7.076;2022-08-01T06:36:54;20.70;99.90
15113;DHT22;7657;50.140;7.076;2022-08-01T06:39:21;20.80;99.90
15113;DHT22;7657;50.140;7.076;2022-08-01T06:41:48;20.80;99.90
15113;DHT22;7657;50.140;7.076;2022-08-01T06:44:14;20.80;99.90
15113;DHT22;7657;50.140;7.076;2022-08-01T06:46:43;20.90;99.90
15113;DHT22;7657;50.140;7.076;2022-08-01T06:49:10;20.90;99.90
15113;DHT22;7657;50.140;7.076;2022-08-01T06:51:37;21.00;99.90
15113;DHT22;7657;50.140;7.076;2022-08-01T06:54:04;21.10;99.90
15113;DHT22;7657;50.140;7.076;2022-08-01T06:56:31;21.10;99.90
15113;DHT22;7657;50.140;7.076;2022-08-01T06:59:00;21.20;99.90
15113;DHT22;7657;50.140;7.076;2022-08-01T07:01:27;21.20;99.90
15113;DHT22;7657;50.140;7.076;2022-08-01T07:03:56;21.20;99.90
15113;DHT22;7657;50.140;7.076;2022-08-01T07:06:24;21.30;99.90
15113;DHT22;7657;50.140;7.076;2022-08-01T07:08:51;21.30;99.90
15113;DHT22;7657;50.140;7.076;2022-08-01T07:11:19;21.30;99.90
15113;DHT22;7657;50.140;7.076;2022-08-01T07:13:46;21.30;99.90
15113;DHT22;7657;50.140;7.076;2022-08-01T07:16:13;21.40;99.90
15113;DHT22;7657;50.140;7.076;2022-08-01T07:18:41;21.40;99.90
15113;DHT22;7657;50.140;7.076;2022-08-01T07:21:09;21.30;99.90
15113;DHT22;7657;50.140;7.076;2022-08-01T07:23:36;21.40;99.90
15113;DHT22;7657;50.140;7.076;2022-08-01T07:26:03;21.40;99.90
15113;DHT22;7657;50.140;7.076;2022-08-01T07:28:32;21.40;99.90
15113;DHT22;7657;50.140;7.076;2022-08-01T07:30:59;21.30;99.90
15113;DHT22;7657;50.140;7.076;2022-08-01T07:33:26;21.30;99.90
15113;DHT22;7657;50.140;7.076;2022-08-01T07:35:52;21.30;99.90
15113;DHT22;7657;50.140;7.076;2022-08-01T07:38:21;21.40;99.90
15113;DHT22;7657;50.140;7.076;2022-08-01T07:40:48;21.40;99.90
15113;DHT22;7657;50.140;7.076;2022-08-01T07:43:15;21.50;99.90
15113;DHT22;7657;50.140;7.076;2022-08-01T07:45:42;21.50;99.90
15113;DHT22;7657;50.140;7.076;2022-08-01T07:48:09;21.50;99.90
15113;DHT22;7657;50.140;7.076;2022-08-01T07:50:36;21.60;99.90
15113;DHT22;7657;50.140;7.076;2022-08-01T07:53:03;21.70;99.90
15113;DHT22;7657;50.140;7.076;2022-08-01T07:55:31;21.70;99.90
15113;DHT22;7657;50.140;7.076;2022-08-01T07:57:58;21.70;99.90
15113;DHT22;7657;50.140;7.076;2022-08-01T08:00:25;21.80;99.90
15113;DHT22;7657;50.140;7.076;2022-08-01T08:02:53;21.90;99.90
15113;DHT22;7657;50.140;7.076;2022-08-01T08:05:20;21.90;99.90
15113;DHT22;7657;50.140;7.076;2022-08-01T08:07:47;22.00;99.90
15113;DHT22;7657;50.140;7.076;2022-08-01T08:10:14;22.10;99.90
15113;DHT22;7657;50.140;7.076;2022-08-01T08:12:42;22.10;99.90
15113;DHT22;7657;50.140;7.076;2022-08-01T08:15:11;22.20;99.90
15113;DHT22;7657;50.140;7.076;2022-08-01T08:17:38;22.20;99.90
15113;DHT22;7657;50.140;7.076;2022-08-01T08:20:06;22.30;99.90
15113;DHT22;7657;50.140;7.076;2022-08-01T08:22:34;22.30;99.90
15113;DHT22;7657;50.140;7.076;2022-08-01T08:25:01;22.40;99.90
15113;DHT22;7657;50.140;7.076;2022-08-01T08:27:28;22.40;99.90
15113;DHT22;7657;50.140;7.076;2022-08-01T08:29:56;22.30;99.90
15113;DHT22;7657;50.140;7.076;2022-08-01T08:32:23;22.40;99.90
15113;DHT22;7657;50.140;7.076;2022-08-01T08:34:50;22.40;99.90
15113;DHT22;7657;50.140;7.076;2022-08-01T08:37:17;22.40;99.90
15113;DHT22;7657;50.140;7.076;2022-08-01T08:39:44;22.20;99.90
15113;DHT22;7657;50.140;7.076;2022-08-01T08:42:11;22.30;99.90
15113;DHT22;7657;50.140;7.076;2022-08-01T08:44:40;22.30;99.90
15113;DHT22;7657;50.140;7.076;2022-08-01T08:47:11;22.40;99.90
15113;DHT22;7657;50.140;7.076;2022-08-01T08:49:38;22.40;99.90
15113;DHT22;7657;50.140;7.076;2022-08-01T08:52:06;22.30;99.90
15113;DHT22;7657;50.140;7.076;2022-08-01T08:54:35;22.40;99.90
15113;DHT22;7657;50.140;7.076;2022-08-01T08:57:04;22.50;99.90
15113;DHT22;7657;50.140;7.076;2022-08-01T08:59:32;22.40;99.90
15113;DHT22;7657;50.140;7.076;2022-08-01T09:01:59;22.40;99.90
15113;DHT22;7657;50.140;7.076;2022-08-01T09:04:28;22.60;99.90
15113;DHT22;7657;50.140;7.076;2022-08-01T09:06:55;22.60;99.90
15113;DHT22;7657;50.140;7.076;2022-08-01T09:09:22;22.50;99.90
15113;DHT22;7657;50.140;7.076;2022-08-01T09:11:50;22.50;99.90
15113;DHT22;7657;50.140;7.076;2022-08-01T09:14:18;22.50;99.90
15113;DHT22;7657;50.140;7.076;2022-08-01T09:16:59;22.60;99.90
15113;DHT22;7657;50.140;7.076;2022-08-01T09:19:34;22.60;99.90
15113;DHT22;7657;50.140;7.076;2022-08-01T09:22:03;22.60;99.90
15113;DHT22;7657;50.140;7.076;2022-08-01T09:24:32;22.70;99.90
15113;DHT22;7657;50.140;7.076;2022-08-01T09:27:00;22.80;99.90
15113;DHT22;7657;50.140;7.076;2022-08-01T09:29:29;22.80;99.90
15113;DHT22;7657;50.140;7.076;2022-08-01T09:31:57;22.80;99.90
15113;DHT22;7657;50.140;7.076;2022-08-01T09:34:28;22.80;99.90
15113;DHT22;7657;50.140;7.076;2022-08-01T09:36:57;22.80;99.90
15113;DHT22;7657;50.140;7.076;2022-08-01T09:39:26;22.80;99.90
15113;DHT22;7657;50.140;7.076;2022-08-01T09:41:55;22.70;99.90
15113;DHT22;7657;50.140;7.076;2022-08-01T09:44:37;22.60;99.90
15113;DHT22;7657;50.140;7.076;2022-08-01T09:47:04;22.60;99.90
15113;DHT22;7657;50.140;7.076;2022-08-01T09:49:34;22.70;99.90
15113;DHT22;7657;50.140;7.076;2022-08-01T09:52:12;22.70;99.90
15113;DHT22;7657;50.140;7.076;2022-08-01T09:54:40;22.90;99.90
15113;DHT22;7657;50.140;7.076;2022-08-01T09:57:12;23.00;99.90
15113;DHT22;7657;50.140;7.076;2022-08-01T09:59:40;23.10;99.90
15113;DHT22;7657;50.140;7.076;2022-08-01T10:02:09;23.20;99.90
15113;DHT22;7657;50.140;7.076;2022-08-01T10:04:48;23.30;99.90
15113;DHT22;7657;50.140;7.076;2022-08-01T10:07:15;23.30;99.90
15113;DHT22;7657;50.140;7.076;2022-08-01T10:09:43;23.30;99.90
15113;DHT22;7657;50.140;7.076;2022-08-01T10:12:13;23.30;99.90
15113;DHT22;7657;50.140;7.076;2022-08-01T10:14:40;23.30;99.90
15113;DHT22;7657;50.140;7.076;2022-08-01T10:17:09;23.30;99.90
15113;DHT22;7657;50.140;7.076;2022-08-01T10:19:40;23.40;99.90
15113;DHT22;7657;50.140;7.076;2022-08-01T10:22:10;23.40;99.90
15113;DHT22;7657;50.140;7.076;2022-08-01T10:24:39;23.30;99.90
15113;DHT22;7657;50.140;7.076;2022-08-01T10:27:07;23.30;99.90
15113;DHT22;7657;50.140;7.076;2022-08-01T10:29:39;23.30;99.90
15113;DHT22;7657;50.140;7.076;2022-08-01T10:32:07;23.40;99.90
15113;DHT22;7657;50.140;7.076;2022-08-01T10:34:35;23.50;99.90
15113;DHT22;7657;50.140;7.076;2022-08-01T10:37:02;23.50;99.90
15113;DHT22;7657;50.140;7.076;2022-08-01T10:39:32;23.60;99.90
15113;DHT22;7657;50.140;7.076;2022-08-01T10:42:00;23.50;99.90
15113;DHT22;7657;50.140;7.076;2022-08-01T10:44:28;23.60;99.90
15113;DHT22;7657;50.140;7.076;2022-08-01T10:47:02;23.70;99.90
15113;DHT22;7657;50.140;7.076;2022-08-01T10:49:34;23.70;99.90
15113;DHT22;7657;50.140;7.076;2022-08-01T10:52:02;23.80;99.90
15113;DHT22;7657;50.140;7.076;2022-08-01T10:54:30;23.90;99.90
15113;DHT22;7657;50.140;7.076;2022-08-01T10:57:04;23.80;99.90
15113;DHT22;7657;50.140;7.076;2022-08-01T10:59:33;23.90;99.90
15113;DHT22;7657;50.140;7.076;2022-08-01T11:02:02;24.00;99.90
15113;DHT22;7657;50.140;7.076;2022-08-01T11:04:39;24.10;99.90
15113;DHT22;7657;50.140;7.076;2022-08-01T11:07:13;24.10;99.90
15113;DHT22;7657;50.140;7.076;2022-08-01T11:09:45;24.10;99.90
15113;DHT22;7657;50.140;7.076;2022-08-01T11:12:13;24.20;99.90
15113;DHT22;7657;50.140;7.076;2022-08-01T11:15:18;24.20;99.90
15113;DHT22;7657;50.140;7.076;2022-08-01T11:17:50;24.20;99.90
15113;DHT22;7657;50.140;7.076;2022-08-01T11:20:19;24.30;99.90
15113;DHT22;7657;50.140;7.076;2022-08-01T11:26:14;24.50;99.90
15113;DHT22;7657;50.140;7.076;2022-08-01T11:28:43;24.60;99.90
15113;DHT22;7657;50.140;7.076;2022-08-01T11:31:28;24.60;99.90
15113;DHT22;7657;50.140;7.076;2022-08-01T11:33:56;24.50;99.90
15113;DHT22;7657;50.140;7.076;2022-08-01T11:36:23;24.60;99.90
15113;DHT22;7657;50.140;7.076;2022-08-01T11:39:17;24.60;99.90
15113;DHT22;7657;50.140;7.076;2022-08-01T11:41:47;24.70;99.90
15113;DHT22;7657;50.140;7.076;2022-08-01T11:44:17;24.70;99.90
15113;DHT22;7657;50.140;7.076;2022-08-01T11:46:59;24.70;99.90
15113;DHT22;7657;50.140;7.076;2022-08-01T11:49:44;24.80;99.90
15113;DHT22;7657;50.140;7.076;2022-08-01T11:52:15;24.80;99.90
15113;DHT22;7657;50.140;7.076;2022-08-01T11:54:44;24.80;99.90
15113;DHT22;7657;50.140;7.076;2022-08-01T11:57:14;24.90;99.90
15113;DHT22;7657;50.140;7.076;2022-08-01T11:59:43;24.80;99.90
15113;DHT22;7657;50.140;7.076;2022-08-01T12:02:26;24.70;99.90
15113;DHT22;7657;50.140;7.076;2022-08-01T12:04:55;24.70;99.90
15113;DHT22;7657;50.140;7.076;2022-08-01T12:07:25;24.80;99.90
15113;DHT22;7657;50.140;7.076;2022-08-01T12:10:00;24.80;99.90
15113;DHT22;7657;50.140;7.076;2022-08-01T12:12:30;24.80;99.90
15113;DHT22;7657;50.140;7.076;2022-08-01T12:14:58;24.90;99.90
15113;DHT22;7657;50.140;7.076;2022-08-01T12:17:33;24.90;99.90
15113;DHT22;7657;50.140;7.076;2022-08-01T12:20:02;24.90;99.90
15113;DHT22;7657;50.140;7.076;2022-08-01T12:22:29;25.00;99.90
15113;DHT22;7657;50.140;7.076;2022-08-01T12:25:05;24.90;99.90
15113;DHT22;7657;50.140;7.076;2022-08-01T12:27:34;24.90;99.90
15113;DHT22;7657;50.140;7.076;2022-08-01T12:30:05;24.90;99.90
15113;DHT22;7657;50.140;7.076;2022-08-01T12:32:34;24.90;99.90
15113;DHT22;7657;50.140;7.076;2022-08-01T12:35:03;24.90;99.90
15113;DHT22;7657;50.140;7.076;2022-08-01T12:37:30;24.80;99.90
15113;DHT22;7657;50.140;7.076;2022-08-01T12:39:58;24.70;99.90
15113;DHT22;7657;50.140;7.076;2022-08-01T12:42:25;24.80;99.90
15113;DHT22;7657;50.140;7.076;2022-08-01T12:44:55;24.80;99.90
15113;DHT22;7657;50.140;7.076;2022-08-01T12:47:23;24.80;99.90
15113;DHT22;7657;50.140;7.076;2022-08-01T12:49:50;24.80;99.90
15113;DHT22;7657;50.140;7.076;2022-08-01T12:52:18;24.80;99.90
15113;DHT22;7657;50.140;7.076;2022-08-01T12:55:10;24.90;99.90
15113;DHT22;7657;50.140;7.076;2022-08-01T12:57:39;24.80;99.90
15113;DHT22;7657;50.140;7.076;2022-08-01T13:00:13;24.80;99.90
15113;DHT22;7657;50.140;7.076;2022-08-01T13:02:41;24.80;99.90
15113;DHT22;7657;50.140;7.076;2022-08-01T13:05:09;24.70;99.90
15113;DHT22;7657;50.140;7.076;2022-08-01T13:07:45;24.70;99.90
15113;DHT22;7657;50.140;7.076;2022-08-01T13:10:13;24.60;99.90
15113;DHT22;7657;50.140;7.076;2022-08-01T13:12:50;24.60;99.90
15113;DHT22;7657;50.140;7.076;2022-08-01T13:15:22;24.60;99.90
15113;DHT22;7657;50.140;7.076;2022-08-01T13:17:50;24.70;99.90
15113;DHT22;7657;50.140;7.076;2022-08-01T13:20:29;24.60;99.90
15113;DHT22;7657;50.140;7.076;2022-08-01T13:23:10;24.40;99.90
15113;DHT22;7657;50.140;7.076;2022-08-01T13:25:47;24.40;99.90
15113;DHT22;7657;50.140;7.076;2022-08-01T13:28:14;24.40;99.90
15113;DHT22;7657;50.140;7.076;2022-08-01T13:30:56;24.30;99.90
15113;DHT22;7657;50.140;7.076;2022-08-01T13:33:23;24.30;99.90
15113;DHT22;7657;50.140;7.076;2022-08-01T13:35:52;24.20;99.90
15113;DHT22;7657;50.140;7.076;2022-08-01T13:38:19;24.30;99.90
15113;DHT22;7657;50.140;7.076;2022-08-01T13:41:06;24.20;99.90
15113;DHT22;7657;50.140;7.076;2022-08-01T13:43:33;24.10;99.90
15113;DHT22;7657;50.140;7.076;2022-08-01T13:46:02;24.00;99.90
15113;DHT22;7657;50.140;7.076;2022-08-01T13:48:30;24.10;99.90
15113;DHT22;7657;50.140;7.076;2022-08-01T13:50:57;24.20;99.90
15113;DHT22;7657;50.140;7.076;2022-08-01T13:53:24;24.20;99.90
15113;DHT22;7657;50.140;7.076;2022-08-01T13:55:51;24.00;99.90
15113;DHT22;7657;50.140;7.076;2022-08-01T13:58:18;23.80;99.90
15113;DHT22;7657;50.140;7.076;2022-08-01T14:00:45;23.90;99.90
15113;DHT22;7657;50.140;7.076;2022-08-01T14:03:14;23.90;99.90
15113;DHT22;7657;50.140;7.076;2022-08-01T14:05:42;23.80;99.90
15113;DHT22;7657;50.140;7.076;2022-08-01T14:08:09;23.90;99.90
15113;DHT22;7657;50.140;7.076;2022-08-01T14:10:36;23.90;99.90
15113;DHT22;7657;50.140;7.076;2022-08-01T14:13:03;23.70;99.90
15113;DHT22;7657;50.140;7.076;2022-08-01T14:15:31;23.70;99.90
15113;DHT22;7657;50.140;7.076;2022-08-01T14:17:58;23.60;99.90
15113;DHT22;7657;50.140;7.076;2022-08-01T14:20:26;23.50;99.90
15113;DHT22;7657;50.140;7.076;2022-08-01T14:22:53;23.40;99.90
15113;DHT22;7657;50.140;7.076;2022-08-01T14:25:20;23.50;99.90
15113;DHT22;7657;50.140;7.076;2022-08-01T14:27:47;23.50;99.90
15113;DHT22;7657;50.140;7.076;2022-08-01T14:30:14;23.60;99.90
15113;DHT22;7657;50.140;7.076;2022-08-01T14:32:41;23.50;99.90
15113;DHT22;7657;50.140;7.076;2022-08-01T14:35:08;23.40;99.90
15113;DHT22;7657;50.140;7.076;2022-08-01T14:37:37;23.40;99.90
15113;DHT22;7657;50.140;7.076;2022-08-01T14:40:05;23.40;99.90
15113;DHT22;7657;50.140;7.076;2022-08-01T14:42:35;23.50;99.90
15113;DHT22;7657;50.140;7.076;2022-08-01T14:45:02;23.40;99.90
15113;DHT22;7657;50.140;7.076;2022-08-01T14:47:29;23.40;99.90
15113;DHT22;7657;50.140;7.076;2022-08-01T14:49:56;23.40;99.90
15113;DHT22;7657;50.140;7.076;2022-08-01T14:52:23;23.30;99.90
15113;DHT22;7657;50.140;7.076;2022-08-01T14:54:51;23.30;99.90
15113;DHT22;7657;50.140;7.076;2022-08-01T14:57:18;23.20;99.90
15113;DHT22;7657;50.140;7.076;2022-08-01T14:59:45;23.20;99.90
15113;DHT22;7657;50.140;7.076;2022-08-01T15:02:12;23.20;99.90
15113;DHT22;7657;50.140;7.076;2022-08-01T15:04:42;23.40;99.90
15113;DHT22;7657;50.140;7.076;2022-08-01T15:07:10;23.50;99.90
15113;DHT22;7657;50.140;7.076;2022-08-01T15:09:37;23.60;99.90
15113;DHT22;7657;50.140;7.076;2022-08-01T15:12:07;23.70;99.90
15113;DHT22;7657;50.140;7.076;2022-08-01T15:14:34;23.50;99.90
15113;DHT22;7657;50.140;7.076;2022-08-01T15:17:17;23.60;99.90
15113;DHT22;7657;50.140;7.076;2022-08-01T15:19:44;23.60;99.90
15113;DHT22;7657;50.140;7.076;2022-08-01T15:22:11;23.70;99.90
15113;DHT22;7657;50.140;7.076;2022-08-01T15:24:38;23.70;99.90
15113;DHT22;7657;50.140;7.076;2022-08-01T15:27:07;23.80;99.90
15113;DHT22;7657;50.140;7.076;2022-08-01T15:29:34;24.00;99.90
15113;DHT22;7657;50.140;7.076;2022-08-01T15:32:01;24.10;99.90
15113;DHT22;7657;50.140;7.076;2022-08-01T15:34:29;24.30;99.90
15113;DHT22;7657;50.140;7.076;2022-08-01T15:36:57;24.30;99.90
15113;DHT22;7657;50.140;7.076;2022-08-01T15:39:24;24.20;99.90
15113;DHT22;7657;50.140;7.076;2022-08-01T15:41:51;24.20;99.90
15113;DHT22;7657;50.140;7.076;2022-08-01T15:44:19;24.20;99.90
15113;DHT22;7657;50.140;7.076;2022-08-01T15:46:47;24.20;99.90
15113;DHT22;7657;50.140;7.076;2022-08-01T15:49:14;24.20;99.90
15113;DHT22;7657;50.140;7.076;2022-08-01T15:51:42;24.20;99.90
15113;DHT22;7657;50.140;7.076;2022-08-01T15:54:10;24.20;99.90
15113;DHT22;7657;50.140;7.076;2022-08-01T15:56:37;24.20;99.90
15113;DHT22;7657;50.140;7.076;2022-08-01T15:59:04;24.20;99.90
15113;DHT22;7657;50.140;7.076;2022-08-01T16:01:33;24.20;99.90